KMNN/MNN METAR and TAF weather

Enter ICAO airport designator
Station Type Date Time Source
KMNN METAR 2022/06/27 06:53 UTC NOAA

KMNN 270653Z AUTO 34006KT 10SM CLR 18/11 A3008 RMK AO2 SLP181 T01830111 $


Station Type Date Time Source
KMNN Decoded METAR 2022/06/27 06:53 UTC NOAA

MARION MUNICIPAL AIRPORT, OH, United States (KMNN) 40-37N 83-04W 301M
Jun 27, 2022 - 02:53 AM EDT / 2022.06.27 0653 UTC
Wind: from the NNW (340 degrees) at 7 MPH (6 KT):0
Visibility: 10 mile(s):0
Sky conditions: clear
Temperature: 64.9 F (18.3 C)
Dew Point: 52.0 F (11.1 C)
Relative Humidity: 62%
Pressure (altimeter): 30.08 in. Hg (1018 hPa)
ob: KMNN 270653Z AUTO 34006KT 10SM CLR 18/11 A3008 RMK AO2 SLP181 T01830111
cycle: 7

Station Type Date Time Source
KMNN TAF UTC NOAA

Error!

Example: see airport list